Terminal Aerodrome Forecast
Issued by NWS

Home | Current Version | Previous Version | Text Only | Print | Product List | Glossary On
Versions: 1 2 3 4 5 6 7 8 9 10 11 12 13 14 15 16 17 18 19 20 21 22 23 24 25 26 27 28 29 30 31
350
FTUS41 KOKX 260204 AAC
TAFHPN
TAF AMD
KHPN 260204Z 2602/2624 32015G25KT P6SM FEW025 BKN050
      TEMPO 2602/2603 -SHRA
     FM260500 30015G25KT P6SM FEW050 SCT100
     FM261200 28018G27KT P6SM BKN050 BKN250
     FM262300 28011KT P6SM FEW060
      AMD NOT SKED=

USA.gov is the U.S. government's official web portal to all federal, state and local government web resources and services.